Благодатное (полигон)

Карта отелей и гостиниц, располагающихся рядом с аэропортом Благодатное (полигон) :

Благодатное (полигон) Хабаровский край 48° 26' 57.66" N, 135° 33' 10.62" E
Благодатное (полигон) Хабаровский край 48° 26' 57.66" N, 135° 33' 10.62" E
Код аэродрома ИКАО: 
HGA8
Код аэродрома RU: 
ХГА8
Координаты: 
N48.44935° E135.55295°
Превышение над уровнем моря : 
40
Основная полоса: 
07/25
Курс магнитный: 
073,6/253,6
Длина основной ВПП: 
24
Ширина основной ВПП: 
20
Покрытие основной ВПП: 
Твёрдое
Освещение ВПП: 
Нет
Тип: 
Вертодром
Класс аэродрома: 
Принадлежность: 
МО
Статус: 
Действующий
Сайт: 
E-mail аэродрома: 
Страна: 
Россия
Регион: 
Хабаровский край
Город: 
Дополнительная информация: 
Оператор: нет данных. Три однотипных ПП для вертолетов.

Найти трансфер

С помощью этой формы Вы можете найти трансфер из аэропорта Благодатное (полигон) в город, аэропорт или вокзал:

Карта места

Javascript is required to view this map.

Погода в аэропортах:

Авиационная погода в Усть-Каменогорске

Регион: 
Погода METAR: 
UASK 282000Z 26002MPS 5000 BR BKN031 BKN083 04/03 Q1026 R30/090060 NOSIG RMK QFE743/0991
Время наблюдения: 
2020-09-28T20:00:00Z
Температура C: 
4.0
Точка росы: 
3.0
Направление ветра: 
260
Скорость ветра (узлы): 
4
Метеорологическая видимость: 
3.11
Явления погоды: 
BR
Условия полета: 
MVFR
Аэропорт подробнее: 

Авиационная погода в Куусамо

Регион: 
Погода METAR: 
EFKS 281950Z AUTO 15006KT 1500 1200 R12/1900N BCFG VV001 09/09 Q1022
Время наблюдения: 
2020-09-28T19:50:00Z
Температура C: 
9.0
Точка росы: 
9.0
Направление ветра: 
150
Скорость ветра (узлы): 
6
Метеорологическая видимость: 
0.93
Явления погоды: 
BCFG
Условия полета: 
LIFR

Авиационная погода в Елизово

Регион: 
Погода METAR: 
UHPP 281930Z 03004MPS 290V100 9999 -SHRA SCT040CB 06/05 Q1003 R16R/290345 NOSIG RMK MT OBSC QFE749/0999
Время наблюдения: 
2020-09-28T19:30:00Z
Температура C: 
6.0
Точка росы: 
5.0
Направление ветра: 
30
Скорость ветра (узлы): 
8
Метеорологическая видимость: 
6.21
Явления погоды: 
-SHRA
Условия полета: 
VFR
Аэропорт подробнее: 

Авиационная погода в Богашево

Регион: 
Погода METAR: 
UNTT 281930Z 26003MPS 8000 -SHRA FEW021CB 09/06 Q1018 R21/090060 NOSIG RMK QFE748
Время наблюдения: 
2020-09-28T19:30:00Z
Температура C: 
9.0
Точка росы: 
6.0
Направление ветра: 
260
Скорость ветра (узлы): 
6
Метеорологическая видимость: 
4.97
Явления погоды: 
-SHRA
Условия полета: 
MVFR
Аэропорт подробнее: